createdAt,value
2018-08-07T00:01:38.562Z,5.00
2018-08-07T00:04:06.226Z,4.30
2018-08-07T00:06:33.886Z,4.87
2018-08-07T00:09:01.478Z,4.70
2018-08-07T00:11:29.227Z,4.80
2018-08-07T00:13:56.943Z,4.63
2018-08-07T00:16:24.578Z,4.73
2018-08-07T00:18:52.226Z,4.87
2018-08-07T00:21:19.867Z,4.43
2018-08-07T00:23:47.461Z,5.03
2018-08-07T00:26:15.078Z,5.70
2018-08-07T00:28:42.678Z,5.40
2018-08-07T00:31:13.667Z,4.83
2018-08-07T00:33:41.279Z,5.53
2018-08-07T00:36:09.763Z,4.70
2018-08-07T00:38:37.486Z,4.73
2018-08-07T00:41:05.142Z,4.67
2018-08-07T00:43:32.714Z,5.10
2018-08-07T00:46:00.342Z,4.77
2018-08-07T00:48:27.881Z,4.67
2018-08-07T00:50:55.487Z,4.17
2018-08-07T00:53:23.090Z,4.93
2018-08-07T00:55:50.666Z,4.70
2018-08-07T00:58:18.370Z,5.37
2018-08-07T01:00:45.954Z,4.77
2018-08-07T01:03:16.958Z,4.60
2018-08-07T01:05:44.568Z,4.50
2018-08-07T01:08:12.202Z,5.17
2018-08-07T01:10:40.802Z,5.13
2018-08-07T01:13:08.511Z,4.30
2018-08-07T01:15:36.186Z,5.07
2018-08-07T01:18:04.522Z,4.60
2018-08-07T01:20:32.203Z,4.60
2018-08-07T01:22:59.878Z,4.80
2018-08-07T01:25:27.663Z,4.83
2018-08-07T01:27:55.287Z,6.20
2018-08-07T01:30:26.646Z,5.10
2018-08-07T01:32:54.966Z,4.57
2018-08-07T01:35:23.111Z,4.60
2018-08-07T01:37:54.502Z,5.10
2018-08-07T01:40:22.098Z,4.50
2018-08-07T01:42:49.795Z,4.80
2018-08-07T01:45:17.477Z,4.90
2018-08-07T01:47:45.138Z,4.57
2018-08-07T01:50:13.665Z,4.40
2018-08-07T01:52:41.527Z,4.70
2018-08-07T01:55:10.440Z,4.50
2018-08-07T01:57:38.382Z,4.67
2018-08-07T02:00:09.887Z,4.10
2018-08-07T02:02:37.756Z,4.87
2018-08-07T02:05:07.526Z,5.00
2018-08-07T02:07:35.242Z,5.57
2018-08-07T02:10:02.941Z,4.83
2018-08-07T02:12:30.575Z,4.23
2018-08-07T02:14:58.318Z,4.73
2018-08-07T02:17:25.982Z,5.20
2018-08-07T02:19:53.666Z,4.60
2018-08-07T02:22:21.254Z,4.57
2018-08-07T02:24:48.896Z,4.60
2018-08-07T02:27:16.612Z,5.40
2018-08-07T02:29:45.251Z,4.60
2018-08-07T02:32:12.932Z,4.60
2018-08-07T02:34:40.606Z,3.90
2018-08-07T02:37:08.226Z,5.07
2018-08-07T02:39:35.843Z,4.67
2018-08-07T02:42:03.488Z,4.13
2018-08-07T02:44:31.135Z,5.17
2018-08-07T02:46:58.759Z,4.83
2018-08-07T02:49:26.410Z,4.93
2018-08-07T02:51:53.991Z,3.77
2018-08-07T02:54:21.629Z,4.57
2018-08-07T02:56:49.323Z,5.30
2018-08-07T02:59:16.902Z,4.33
2018-08-07T03:01:44.523Z,4.40
2018-08-07T03:04:12.255Z,4.80
2018-08-07T03:06:39.938Z,4.80
2018-08-07T03:09:08.755Z,5.30
2018-08-07T03:11:40.371Z,4.87
2018-08-07T03:14:07.947Z,5.90
2018-08-07T03:16:35.876Z,5.53
2018-08-07T03:19:03.598Z,5.00
2018-08-07T03:21:31.224Z,4.43
2018-08-07T03:23:58.911Z,4.57
2018-08-07T03:26:26.579Z,5.20
2018-08-07T03:28:54.306Z,4.50
2018-08-07T03:31:21.990Z,5.30
2018-08-07T03:33:49.678Z,5.10
2018-08-07T03:36:17.354Z,5.20
2018-08-07T03:38:44.929Z,4.90
2018-08-07T03:41:12.536Z,5.20
2018-08-07T03:43:40.166Z,5.30
2018-08-07T03:46:07.806Z,4.83
2018-08-07T03:48:35.477Z,5.50
2018-08-07T03:51:03.126Z,6.00
2018-08-07T03:53:30.790Z,5.20
2018-08-07T03:55:58.419Z,4.60
2018-08-07T03:58:26.094Z,5.50
2018-08-07T04:00:53.713Z,5.30
2018-08-07T04:03:21.397Z,5.20
2018-08-07T04:05:49.054Z,5.90
2018-08-07T04:08:16.740Z,7.00
2018-08-07T04:10:44.350Z,6.20
2018-08-07T04:13:12.978Z,5.33
2018-08-07T04:15:40.524Z,4.83
2018-08-07T04:18:08.182Z,5.87
2018-08-07T04:20:35.850Z,5.20
2018-08-07T04:23:03.539Z,5.50
2018-08-07T04:25:31.230Z,6.20
2018-08-07T04:27:58.846Z,5.20
2018-08-07T04:30:26.436Z,4.93
2018-08-07T04:32:54.102Z,5.37
2018-08-07T04:35:21.741Z,5.40
2018-08-07T04:37:49.408Z,5.10
2018-08-07T04:40:16.974Z,5.23
2018-08-07T04:42:44.653Z,5.23
2018-08-07T04:45:13.602Z,5.17
2018-08-07T04:47:41.774Z,5.53
2018-08-07T04:50:09.686Z,5.33
2018-08-07T04:52:38.082Z,4.90
2018-08-07T04:55:09.022Z,6.17
2018-08-07T04:57:36.825Z,5.07
2018-08-07T05:00:08.011Z,5.20
2018-08-07T05:02:35.631Z,6.03
2018-08-07T05:05:05.525Z,5.43
2018-08-07T05:07:33.245Z,5.60
2018-08-07T05:10:00.975Z,4.90
2018-08-07T05:12:28.647Z,5.73
2018-08-07T05:14:56.269Z,6.03
2018-08-07T05:17:23.877Z,5.47
2018-08-07T05:19:51.466Z,4.83
2018-08-07T05:22:19.066Z,5.63
2018-08-07T05:24:46.618Z,5.30
2018-08-07T05:27:14.324Z,5.50
2018-08-07T05:29:41.992Z,5.70
2018-08-07T05:32:09.607Z,6.00
2018-08-07T05:34:37.233Z,6.17
2018-08-07T05:37:04.864Z,4.93
2018-08-07T05:39:36.266Z,5.73
2018-08-07T05:42:03.894Z,5.57
2018-08-07T05:44:31.594Z,5.70
2018-08-07T05:46:59.233Z,5.07
2018-08-07T05:49:26.851Z,5.50
2018-08-07T05:51:54.462Z,5.40
2018-08-07T05:54:22.170Z,4.77
2018-08-07T05:56:49.807Z,5.13
2018-08-07T05:59:17.399Z,4.60
2018-08-07T06:01:45.105Z,5.60
2018-08-07T06:04:12.743Z,4.80
2018-08-07T06:06:40.370Z,6.23
2018-08-07T06:09:08.748Z,5.33
2018-08-07T06:11:36.392Z,5.10
2018-08-07T06:14:03.934Z,4.97
2018-08-07T06:16:31.546Z,5.27
2018-08-07T06:18:59.251Z,5.10
2018-08-07T06:21:26.872Z,5.67
2018-08-07T06:23:54.517Z,5.67
2018-08-07T06:26:22.158Z,4.20
2018-08-07T06:28:49.859Z,4.53
2018-08-07T06:31:17.476Z,5.17
2018-08-07T06:33:45.071Z,4.57
2018-08-07T06:36:12.675Z,5.70
2018-08-07T06:38:40.383Z,4.70
2018-08-07T06:41:08.024Z,5.27
2018-08-07T06:43:35.706Z,4.50
2018-08-07T06:46:03.550Z,5.23
2018-08-07T06:48:31.113Z,4.90
2018-08-07T06:50:58.711Z,4.13
2018-08-07T06:53:26.330Z,3.70
2018-08-07T06:55:53.848Z,4.57
2018-08-07T06:58:21.446Z,4.10
2018-08-07T07:00:49.103Z,3.83
2018-08-07T07:03:16.741Z,4.30
2018-08-07T07:05:44.328Z,4.20
2018-08-07T07:08:11.958Z,4.20
2018-08-07T07:10:39.560Z,4.00
2018-08-07T07:13:07.250Z,4.40
2018-08-07T07:17:43.190Z,4.60
2018-08-07T07:20:12.574Z,4.90
2018-08-07T07:22:41.107Z,5.23
2018-08-07T07:25:09.114Z,3.97
2018-08-07T07:27:36.781Z,4.30
2018-08-07T07:30:10.191Z,4.93
2018-08-07T07:32:37.785Z,4.13
2018-08-07T07:35:05.439Z,4.83
2018-08-07T07:37:33.090Z,5.87
2018-08-07T07:40:00.734Z,5.20
2018-08-07T07:42:28.224Z,7.40
2018-08-07T07:44:56.123Z,5.33
2018-08-07T07:47:23.674Z,6.43
2018-08-07T07:49:51.303Z,5.80
2018-08-07T07:52:18.949Z,5.57
2018-08-07T07:54:46.537Z,7.23
2018-08-07T07:57:14.146Z,6.13
2018-08-07T07:59:41.746Z,6.10
2018-08-07T08:02:09.354Z,6.67
2018-08-07T08:04:37.027Z,6.47
2018-08-07T08:07:04.723Z,7.17
2018-08-07T08:09:32.402Z,6.50
2018-08-07T08:12:00.013Z,7.60
2018-08-07T08:14:27.666Z,6.80
2018-08-07T08:16:55.338Z,8.03
2018-08-07T08:19:22.964Z,7.67
2018-08-07T08:21:50.570Z,7.17
2018-08-07T08:24:18.130Z,7.10
2018-08-07T08:26:45.826Z,8.00
2018-08-07T08:29:13.436Z,7.53
2018-08-07T08:31:40.919Z,8.20
2018-08-07T08:34:08.474Z,7.47
2018-08-07T08:36:36.062Z,7.50
2018-08-07T08:39:06.294Z,8.20
2018-08-07T08:41:33.911Z,6.80
2018-08-07T08:44:01.586Z,7.50
2018-08-07T08:46:29.258Z,7.00
2018-08-07T08:49:00.151Z,7.63
2018-08-07T08:51:27.774Z,7.03
2018-08-07T08:53:55.610Z,7.00
2018-08-07T08:56:23.204Z,7.43
2018-08-07T08:58:50.910Z,7.23
2018-08-07T09:01:18.578Z,6.53
2018-08-07T09:03:46.239Z,7.20
2018-08-07T09:06:13.907Z,6.57
2018-08-07T09:08:41.550Z,7.30
2018-08-07T09:11:09.127Z,7.60
2018-08-07T09:13:36.699Z,6.50
2018-08-07T09:16:04.374Z,6.97
2018-08-07T09:18:31.990Z,6.70
2018-08-07T09:20:59.625Z,5.93
2018-08-07T09:23:27.139Z,6.30
2018-08-07T09:25:54.904Z,6.40
2018-08-07T09:28:26.515Z,5.90
2018-08-07T09:30:54.122Z,6.13
2018-08-07T09:33:25.502Z,6.13
2018-08-07T09:35:53.122Z,6.80
2018-08-07T09:38:20.654Z,6.50
2018-08-07T09:40:48.198Z,7.17
2018-08-07T09:43:19.594Z,6.33
2018-08-07T09:45:47.204Z,7.10
2018-08-07T09:48:15.251Z,6.80
2018-08-07T09:50:42.845Z,5.43
2018-08-07T09:53:10.425Z,6.87
2018-08-07T09:55:38.087Z,6.20
2018-08-07T09:58:05.784Z,5.97
2018-08-07T10:00:42.810Z,5.93
2018-08-07T10:03:16.242Z,6.70
2018-08-07T10:05:43.822Z,6.03
2018-08-07T10:08:11.329Z,7.47
2018-08-07T10:10:38.883Z,6.63
2018-08-07T10:13:06.624Z,6.90
2018-08-07T10:15:34.262Z,6.67
2018-08-07T10:18:01.874Z,7.10
2018-08-07T10:20:29.546Z,6.27
2018-08-07T10:22:57.151Z,6.53
2018-08-07T10:25:24.781Z,6.23
2018-08-07T10:27:52.391Z,6.50
2018-08-07T10:30:21.604Z,6.87
2018-08-07T10:32:49.593Z,6.83
2018-08-07T10:35:17.162Z,6.80
2018-08-07T10:37:45.330Z,6.73
2018-08-07T10:40:16.612Z,7.03
2018-08-07T10:42:44.307Z,6.63
2018-08-07T10:45:14.509Z,6.40
2018-08-07T10:47:42.281Z,6.10
2018-08-07T10:50:15.935Z,7.00
2018-08-07T10:52:43.570Z,6.70
2018-08-07T10:55:11.169Z,6.73
2018-08-07T10:57:40.582Z,5.40
2018-08-07T11:00:12.857Z,6.60
2018-08-07T11:02:40.252Z,7.03
2018-08-07T11:05:08.029Z,5.87
2018-08-07T11:07:35.401Z,6.60
2018-08-07T11:10:03.826Z,6.57
2018-08-07T11:12:31.181Z,8.03
2018-08-07T11:14:58.558Z,6.13
2018-08-07T11:17:25.977Z,7.80
2018-08-07T11:19:53.326Z,7.40
2018-08-07T11:22:25.146Z,7.67
2018-08-07T11:24:52.621Z,6.70
2018-08-07T11:27:19.965Z,7.20
2018-08-07T11:29:47.336Z,7.80
2018-08-07T11:32:14.729Z,7.10
2018-08-07T11:34:42.089Z,6.90
2018-08-07T11:37:09.469Z,7.40
2018-08-07T11:39:36.844Z,7.90
2018-08-07T11:42:04.265Z,9.03
2018-08-07T11:44:31.685Z,10.80
2018-08-07T11:47:00.101Z,8.30
2018-08-07T11:49:27.501Z,8.23
2018-08-07T11:51:54.953Z,7.80
2018-08-07T11:54:22.325Z,8.77
2018-08-07T11:56:49.669Z,8.53
2018-08-07T11:59:18.917Z,7.37
2018-08-07T12:01:46.907Z,7.23
2018-08-07T12:04:14.296Z,7.00
2018-08-07T12:06:42.030Z,7.60
2018-08-07T12:09:10.201Z,7.73
2018-08-07T12:11:37.993Z,7.97
2018-08-07T12:14:05.761Z,7.80
2018-08-07T12:16:34.238Z,8.17
2018-08-07T12:21:09.914Z,7.30
2018-08-07T12:23:37.269Z,8.57
2018-08-07T12:26:04.657Z,7.67
2018-08-07T12:28:32.025Z,7.80
2018-08-07T12:30:59.419Z,7.83
2018-08-07T12:33:26.801Z,8.23
2018-08-07T12:35:54.175Z,8.47
2018-08-07T12:38:21.546Z,8.37
2018-08-07T12:40:48.914Z,8.20
2018-08-07T12:43:16.301Z,9.83
2018-08-07T12:45:43.670Z,8.00
2018-08-07T12:48:11.060Z,7.87
2018-08-07T12:50:38.478Z,7.20
2018-08-07T12:53:06.001Z,5.80
2018-08-07T12:55:33.606Z,8.27
2018-08-07T12:58:01.267Z,7.83
2018-08-07T13:00:30.618Z,7.40
2018-08-07T13:02:58.210Z,7.13
2018-08-07T13:05:25.810Z,12.20
2018-08-07T13:07:53.506Z,16.57
2018-08-07T13:10:22.198Z,18.40
2018-08-07T13:12:50.815Z,22.10
2018-08-07T13:15:19.454Z,17.30
2018-08-07T13:17:48.534Z,20.77
2018-08-07T13:20:16.140Z,21.87
2018-08-07T13:22:44.478Z,24.30
2018-08-07T13:25:14.006Z,24.00
2018-08-07T13:27:41.699Z,25.67
2018-08-07T13:30:12.534Z,26.90
2018-08-07T13:32:40.749Z,33.93
2018-08-07T13:35:08.502Z,30.90
2018-08-07T13:37:36.123Z,24.17
2018-08-07T13:40:08.638Z,23.20
2018-08-07T13:42:36.579Z,26.07
2018-08-07T13:45:06.049Z,20.83
2018-08-07T13:47:33.409Z,18.67
2018-08-07T13:50:00.778Z,16.70
2018-08-07T13:52:28.177Z,14.70
2018-08-07T13:54:55.586Z,14.97
2018-08-07T13:57:22.957Z,15.67
2018-08-07T13:59:52.398Z,14.63
2018-08-07T14:02:19.766Z,12.63
2018-08-07T14:04:47.138Z,13.43
2018-08-07T14:07:14.506Z,11.03
2018-08-07T14:09:41.881Z,12.03
2018-08-07T14:12:09.273Z,11.10
2018-08-07T14:14:36.693Z,10.00
2018-08-07T14:17:04.074Z,9.97
2018-08-07T14:19:31.430Z,9.13
2018-08-07T14:21:58.797Z,10.73
2018-08-07T14:24:26.202Z,8.03
2018-08-07T14:26:53.582Z,8.97
2018-08-07T14:29:21.010Z,8.40
2018-08-07T14:31:48.386Z,9.03
2018-08-07T14:34:15.781Z,9.13
2018-08-07T14:36:43.200Z,8.33
2018-08-07T14:39:10.841Z,7.40
2018-08-07T14:41:38.249Z,7.10
2018-08-07T14:44:05.877Z,6.80
2018-08-07T14:46:33.281Z,6.10
2018-08-07T14:49:00.710Z,6.80
2018-08-07T14:51:28.113Z,6.87
2018-08-07T14:53:55.497Z,6.80
2018-08-07T14:56:22.923Z,6.30
2018-08-07T14:58:50.274Z,7.00
2018-08-07T15:01:17.674Z,6.70
2018-08-07T15:03:45.042Z,7.63
2018-08-07T15:06:12.463Z,7.60
2018-08-07T15:08:39.773Z,7.17
2018-08-07T15:11:07.237Z,7.33
2018-08-07T15:13:34.627Z,6.63
2018-08-07T15:16:02.041Z,8.13
2018-08-07T15:18:29.396Z,7.47
2018-08-07T15:20:56.781Z,6.47
2018-08-07T15:23:24.137Z,8.13
2018-08-07T15:25:51.545Z,8.77
2018-08-07T15:28:18.925Z,9.20
2018-08-07T15:30:46.321Z,8.40
2018-08-07T15:33:13.699Z,9.77
2018-08-07T15:35:41.094Z,8.23
2018-08-07T15:38:08.477Z,9.03
2018-08-07T15:40:35.865Z,8.40
2018-08-07T15:43:03.296Z,7.47
2018-08-07T15:45:30.725Z,6.97
2018-08-07T15:47:58.074Z,7.23
2018-08-07T15:50:25.441Z,7.47
2018-08-07T15:52:56.617Z,7.77
2018-08-07T15:55:25.245Z,8.00
2018-08-07T15:57:52.701Z,7.27
2018-08-07T16:00:28.597Z,7.00
2018-08-07T16:02:56.053Z,7.90
2018-08-07T16:05:23.513Z,8.30
2018-08-07T16:07:51.925Z,7.70
2018-08-07T16:10:19.896Z,6.87
2018-08-07T16:12:49.213Z,7.23
2018-08-07T16:15:16.571Z,8.53
2018-08-07T16:17:44.964Z,7.03
2018-08-07T16:20:12.358Z,7.20
2018-08-07T16:22:43.490Z,7.27
2018-08-07T16:25:12.493Z,7.60
2018-08-07T16:27:41.293Z,8.60
2018-08-07T16:30:11.880Z,8.00
2018-08-07T16:48:06.365Z,8.87
2018-08-07T16:50:33.781Z,7.60
2018-08-07T16:53:01.166Z,8.17
2018-08-07T16:55:29.351Z,8.27
2018-08-07T16:57:56.761Z,7.90
2018-08-07T17:00:24.169Z,7.17
2018-08-07T17:02:51.601Z,6.57
2018-08-07T17:05:18.988Z,6.97
2018-08-07T17:07:47.357Z,7.30
2018-08-07T17:10:18.150Z,8.40
2018-08-07T17:12:45.565Z,7.20
2018-08-07T17:15:12.973Z,8.47
2018-08-07T17:17:41.273Z,6.50
2018-08-07T17:20:10.217Z,6.60
2018-08-07T17:22:39.813Z,6.90
2018-08-07T17:25:08.996Z,8.10
2018-08-07T17:27:36.749Z,8.57
2018-08-07T17:30:07.985Z,8.90
2018-08-07T17:32:35.350Z,7.30
2018-08-07T17:35:02.789Z,7.30
2018-08-07T17:37:30.193Z,7.20
2018-08-07T17:39:57.614Z,6.50
2018-08-07T17:42:25.014Z,7.87
2018-08-07T17:44:52.381Z,8.03
2018-08-07T17:47:19.791Z,8.33
2018-08-07T17:49:47.230Z,6.30
2018-08-07T17:52:14.621Z,6.90
2018-08-07T17:54:42.021Z,7.63
2018-08-07T17:57:09.457Z,8.57
2018-08-07T17:59:36.845Z,6.50
2018-08-07T18:02:04.254Z,6.47
2018-08-07T18:04:31.646Z,7.33
2018-08-07T18:06:59.035Z,8.03
2018-08-07T18:09:26.460Z,8.00
2018-08-07T18:11:53.861Z,8.13
2018-08-07T18:14:21.297Z,7.53
2018-08-07T18:16:51.780Z,7.23
2018-08-07T18:19:19.189Z,7.80
2018-08-07T18:21:46.578Z,7.27
2018-08-07T18:24:14.042Z,8.30
2018-08-07T18:26:41.437Z,6.97
2018-08-07T18:29:08.815Z,7.83
2018-08-07T18:31:36.198Z,7.40
2018-08-07T18:34:03.601Z,7.50
2018-08-07T18:36:31.001Z,6.90
2018-08-07T18:38:59.624Z,6.83
2018-08-07T18:41:30.616Z,7.63
2018-08-07T18:43:58.182Z,6.70
2018-08-07T18:46:25.595Z,6.27
2018-08-07T18:48:53.079Z,7.30
2018-08-07T18:51:20.755Z,6.67
2018-08-07T18:53:48.115Z,7.77
2018-08-07T18:56:15.500Z,6.47
2018-08-07T18:58:42.965Z,6.37
2018-08-07T19:01:10.394Z,7.10
2018-08-07T19:03:37.829Z,7.10
2018-08-07T19:06:05.348Z,6.53
2018-08-07T19:08:32.983Z,7.87
2018-08-07T19:11:00.544Z,8.17
2018-08-07T19:13:28.208Z,8.23
2018-08-07T19:15:55.924Z,8.80
2018-08-07T19:18:23.540Z,7.67
2018-08-07T19:20:51.138Z,7.53
2018-08-07T19:23:18.926Z,8.00
2018-08-07T19:25:46.654Z,7.20
2018-08-07T19:28:14.203Z,8.50
2018-08-07T19:30:41.778Z,8.40
2018-08-07T19:33:09.462Z,7.67
2018-08-07T19:35:36.991Z,8.50
2018-08-07T19:38:04.862Z,7.80
2018-08-07T19:40:32.650Z,7.63
2018-08-07T19:43:00.363Z,8.47
2018-08-07T19:45:28.111Z,8.17
2018-08-07T19:47:55.778Z,7.90
2018-08-07T19:50:23.455Z,7.57
2018-08-07T19:52:51.118Z,7.30
2018-08-07T19:55:20.074Z,8.90
2018-08-07T19:57:47.743Z,7.33
2018-08-07T20:00:19.418Z,6.90
2018-08-07T20:02:47.474Z,9.20
2018-08-07T20:05:15.115Z,9.30
2018-08-07T20:07:42.790Z,9.13
2018-08-07T20:10:11.936Z,9.27
2018-08-07T20:12:40.139Z,7.23
2018-08-07T20:15:10.679Z,8.37
2018-08-07T20:17:38.661Z,11.00
2018-08-07T20:20:07.436Z,8.33
2018-08-07T20:22:35.177Z,9.07
2018-08-07T20:25:02.835Z,8.43
2018-08-07T20:27:30.465Z,7.87
2018-08-07T20:29:58.110Z,9.20
2018-08-07T20:32:25.756Z,7.70
2018-08-07T20:34:53.406Z,7.40
2018-08-07T20:37:21.008Z,8.43
2018-08-07T20:39:48.558Z,9.90
2018-08-07T20:42:16.181Z,8.20
2018-08-07T20:44:43.894Z,8.00
2018-08-07T20:47:11.538Z,8.57
2018-08-07T20:49:39.167Z,8.77
2018-08-07T20:52:06.755Z,9.57
2018-08-07T20:54:34.306Z,7.50
2018-08-07T20:57:01.977Z,8.87
2018-08-07T20:59:29.566Z,8.70
2018-08-07T21:01:57.162Z,7.73
2018-08-07T21:04:24.780Z,9.30
2018-08-07T21:06:52.423Z,8.63
2018-08-07T21:09:20.124Z,8.10
2018-08-07T21:11:47.874Z,8.07
2018-08-07T21:14:15.511Z,8.10
2018-08-07T21:16:43.067Z,8.43
2018-08-07T21:19:10.884Z,8.00
2018-08-07T21:21:38.514Z,7.87
2018-08-07T21:24:06.103Z,8.40
2018-08-07T21:26:33.970Z,7.27
2018-08-07T21:29:01.586Z,8.00
2018-08-07T21:31:29.248Z,7.70
2018-08-07T21:33:56.897Z,7.70
2018-08-07T21:36:24.521Z,8.40
2018-08-07T21:38:52.114Z,7.80
2018-08-07T21:41:19.785Z,8.03
2018-08-07T21:43:47.440Z,8.27
2018-08-07T21:46:15.011Z,7.53
2018-08-07T21:48:42.611Z,10.23
2018-08-07T21:51:10.269Z,16.43
2018-08-07T21:53:37.878Z,10.17
2018-08-07T21:56:06.002Z,11.20
2018-08-07T21:58:33.586Z,10.80
2018-08-07T22:01:01.210Z,10.00
2018-08-07T22:03:28.829Z,9.40
2018-08-07T22:05:56.494Z,11.83
2018-08-07T22:08:24.092Z,11.13
2018-08-07T22:10:51.806Z,9.60
2018-08-07T22:13:58.409Z,10.33
2018-08-07T22:16:25.842Z,9.80
2018-08-07T22:18:53.234Z,9.40
2018-08-07T22:21:20.878Z,8.80
2018-08-07T22:23:48.261Z,7.63
2018-08-07T22:26:15.653Z,9.20
2018-08-07T22:28:43.053Z,8.87
2018-08-07T22:31:10.485Z,8.70
2018-08-07T22:33:37.853Z,9.00
2018-08-07T22:36:05.255Z,8.30
2018-08-07T22:38:32.629Z,7.63
2018-08-07T22:41:00.014Z,7.67
2018-08-07T22:43:27.429Z,9.10
2018-08-07T22:45:54.826Z,10.20
2018-08-07T22:48:22.231Z,9.27
2018-08-07T22:50:49.637Z,9.93
2018-08-07T22:53:17.017Z,9.47
2018-08-07T22:55:44.368Z,10.50
2018-08-07T22:58:11.748Z,10.50
2018-08-07T23:00:39.158Z,9.60
2018-08-07T23:03:06.566Z,9.67
2018-08-07T23:05:33.969Z,9.33
2018-08-07T23:08:01.334Z,8.97
2018-08-07T23:10:28.797Z,7.33
2018-08-07T23:12:56.242Z,9.77
2018-08-07T23:15:23.613Z,8.87
2018-08-07T23:17:51.022Z,9.30
2018-08-07T23:20:20.146Z,9.70
2018-08-07T23:22:47.557Z,8.53
2018-08-07T23:25:14.948Z,9.50
2018-08-07T23:27:42.447Z,8.73
2018-08-07T23:30:12.902Z,8.57
2018-08-07T23:32:40.370Z,9.00
2018-08-07T23:35:08.101Z,7.97
2018-08-07T23:37:35.661Z,7.00
2018-08-07T23:40:04.571Z,7.80
2018-08-07T23:42:32.184Z,8.17
2018-08-07T23:44:59.869Z,6.00
2018-08-07T23:47:27.478Z,7.73
2018-08-07T23:49:55.147Z,7.23
2018-08-07T23:52:22.933Z,7.70
2018-08-07T23:54:50.582Z,6.97
2018-08-07T23:57:18.198Z,6.60
2018-08-07T23:59:45.776Z,5.37
